Elsa — WDB7862 — position and weather

sailwx.info

Track history (hours):
 
Tides and Currents Weather Stations Pressure Air Temp Water Temp Dewpoint Dewpoint Depression Visibility Wind Speed Wind Dir Waves Ship Positions

Elsa

Owner: GP RESOURCES INC., TERMINAL ISLAND, CA. More information available from US FCC via Universal Licensing System and Coast Guard Vessel Documentation Center.

Last reported at 2015-Aug-01 02:17 UTC. Time now 2015-Aug-03 21:21 UTC.
Position N 33°44' W 118°16'.

Length 18 m.

Type: Tug. MMSI: 366949020.

Date/timePositionNaut miles runAvg speedWind from/ knotsBaromVisibWave heightAir tempDewpointWater temp
2015-Aug-01 02:17N 33°44' W 118°16'1 0.8
2015-Aug-01 01:33N 33°45' W 118°16'1 0.3
2015-Jul-31 23:24N 33°44' W 118°16'4 4.4
2015-Jul-31 22:33N 33°44' W 118°12'2 1.5
2015-Jul-31 21:23N 33°44' W 118°10'5 2.6
2015-Jul-31 19:27N 33°43' W 118°16'  
2015-Jul-29 13:29N 33°43' W 118°14'2 0.0
2015-Jul-27 23:17N 33°44' W 118°16'0 0.0
2015-Jul-26 19:31N 33°44' W 118°16'0 0.0
2015-Jul-26 18:24N 33°44' W 118°16'0 0.0
2015-Jul-26 15:15N 33°44' W 118°16'0 0.0
2015-Jul-25 21:12N 33°44' W 118°16'0 0.0
2015-Jul-25 11:33N 33°44' W 118°16'0 0.0
2015-Jul-25 10:33N 33°44' W 118°16'0 0.0
2015-Jul-25 09:34N 33°44' W 118°16'0 0.0
2015-Jul-25 08:30N 33°44' W 118°16'0 0.0
2015-Jul-25 07:33N 33°44' W 118°16'1 0.6
2015-Jul-25 06:32N 33°44' W 118°16'2 1.1
2015-Jul-25 04:19N 33°44' W 118°13'3 3.9
2015-Jul-25 03:33N 33°44' W 118°17'1 1.4
2015-Jul-25 02:33N 33°45' W 118°16'1 0.9
2015-Jul-25 01:33N 33°45' W 118°16'1 0.1
2015-Jul-24 12:25N 33°44' W 118°16'5 2.7
2015-Jul-24 10:26N 33°44' W 118°10'0 0.0
2015-Jul-24 09:22N 33°44' W 118°10'0 0.0
2015-Jul-24 08:14N 33°44' W 118°10'0 0.0
2015-Jul-24 07:33N 33°44' W 118°10'  
Track history (hours):
 
Tides and Currents Weather Stations Pressure Air Temp Water Temp Dewpoint Dewpoint Depression Visibility Wind Speed Wind Dir Waves Ship Positions

Elsa

Owner: GP RESOURCES INC., TERMINAL ISLAND, CA. More information available from US FCC via Universal Licensing System and Coast Guard Vessel Documentation Center.

Last reported at 2015-Aug-01 02:17 UTC. Time now 2015-Aug-03 21:21 UTC.
Position N 33°44' W 118°16'.

Length 18 m.

Type: Tug. MMSI: 366949020.

Date/timePositionNaut miles runAvg speedWind from/ knotsBaromVisibWave heightAir tempDewpointWater temp
2015-Aug-01 02:17N 33°44' W 118°16'1 0.8
2015-Aug-01 01:33N 33°45' W 118°16'1 0.3
2015-Jul-31 23:24N 33°44' W 118°16'4 4.4
2015-Jul-31 22:33N 33°44' W 118°12'2 1.5
2015-Jul-31 21:23N 33°44' W 118°10'5 2.6
2015-Jul-31 19:27N 33°43' W 118°16'  
2015-Jul-29 13:29N 33°43' W 118°14'2 0.0
2015-Jul-27 23:17N 33°44' W 118°16'0 0.0
2015-Jul-26 19:31N 33°44' W 118°16'0 0.0
2015-Jul-26 18:24N 33°44' W 118°16'0 0.0
2015-Jul-26 15:15N 33°44' W 118°16'0 0.0
2015-Jul-25 21:12N 33°44' W 118°16'0 0.0
2015-Jul-25 11:33N 33°44' W 118°16'0 0.0
2015-Jul-25 10:33N 33°44' W 118°16'0 0.0
2015-Jul-25 09:34N 33°44' W 118°16'0 0.0
2015-Jul-25 08:30N 33°44' W 118°16'0 0.0
2015-Jul-25 07:33N 33°44' W 118°16'1 0.6
2015-Jul-25 06:32N 33°44' W 118°16'2 1.1
2015-Jul-25 04:19N 33°44' W 118°13'3 3.9
2015-Jul-25 03:33N 33°44' W 118°17'1 1.4
2015-Jul-25 02:33N 33°45' W 118°16'1 0.9
2015-Jul-25 01:33N 33°45' W 118°16'1 0.1
2015-Jul-24 12:25N 33°44' W 118°16'5 2.7
2015-Jul-24 10:26N 33°44' W 118°10'0 0.0
2015-Jul-24 09:22N 33°44' W 118°10'0 0.0
2015-Jul-24 08:14N 33°44' W 118°10'0 0.0
2015-Jul-24 07:33N 33°44' W 118°10'  

Dump ship's entire track history